createdAt,value
2022-10-16T00:14:14.780Z,968.18
2022-10-16T00:29:17.296Z,968.26
2022-10-16T00:44:19.638Z,968.35
2022-10-16T00:59:22.110Z,968.43
2022-10-16T01:14:24.393Z,968.67
2022-10-16T01:29:26.695Z,968.82
2022-10-16T01:44:29.079Z,969.01
2022-10-16T01:59:31.416Z,969.15
2022-10-16T02:14:33.705Z,969.33
2022-10-16T02:29:36.068Z,969.43
2022-10-16T02:44:38.296Z,969.59
2022-10-16T02:59:40.574Z,969.76
2022-10-16T03:14:42.885Z,969.91
2022-10-16T03:29:45.185Z,970.01
2022-10-16T03:44:47.447Z,970.06
2022-10-16T03:59:49.715Z,970.3
2022-10-16T04:14:52.084Z,970.46
2022-10-16T04:29:54.355Z,970.52
2022-10-16T04:44:56.806Z,970.7
2022-10-16T04:59:59.148Z,970.81
2022-10-16T05:15:01.410Z,970.91
2022-10-16T05:30:04.850Z,970.97
2022-10-16T05:45:08.858Z,971.09
2022-10-16T06:00:11.144Z,971.19
2022-10-16T06:15:13.721Z,971.25
2022-10-16T06:30:16.033Z,971.33
2022-10-16T06:45:18.495Z,971.34
2022-10-16T07:00:20.770Z,971.36
2022-10-16T07:15:23.087Z,971.52
2022-10-16T07:30:25.587Z,971.69
2022-10-16T07:45:27.826Z,971.73
2022-10-16T08:00:30.138Z,971.79
2022-10-16T08:15:32.688Z,971.9
2022-10-16T08:30:35.113Z,971.9
2022-10-16T08:45:37.457Z,971.92
2022-10-16T09:00:39.894Z,971.93
2022-10-16T09:15:42.191Z,972.03
2022-10-16T09:30:44.489Z,972.06
2022-10-16T09:45:46.800Z,972.04
2022-10-16T10:00:49.085Z,972.08
2022-10-16T10:15:51.361Z,972.14
2022-10-16T10:30:53.656Z,972.17
2022-10-16T10:45:56.977Z,972.26
2022-10-16T11:00:59.218Z,972.32
2022-10-16T11:16:01.386Z,972.39
2022-10-16T11:31:03.716Z,972.38
2022-10-16T11:46:07.841Z,972.26
2022-10-16T12:01:12.529Z,972.18
2022-10-16T12:16:14.796Z,972.24
2022-10-16T12:31:17.022Z,972.27
2022-10-16T12:46:19.220Z,972.33
2022-10-16T13:01:21.441Z,972.39
2022-10-16T13:16:23.659Z,972.47
2022-10-16T13:31:25.847Z,972.51
2022-10-16T13:46:28.171Z,972.51
2022-10-16T14:01:32.678Z,972.47
2022-10-16T14:16:35.419Z,972.5
2022-10-16T14:31:37.619Z,972.58
2022-10-16T14:46:39.832Z,972.69
2022-10-16T15:01:42.131Z,972.78
2022-10-16T15:16:44.319Z,972.83
2022-10-16T15:31:46.624Z,972.52
2022-10-16T15:46:48.865Z,971.93
2022-10-16T16:01:51.123Z,972.73
2022-10-16T16:16:53.374Z,972.04
2022-10-16T16:31:55.588Z,971.68
2022-10-16T16:46:57.969Z,972.63
2022-10-16T17:02:00.232Z,972.6
2022-10-16T17:17:02.495Z,972.52
2022-10-16T17:32:04.714Z,972.14
2022-10-16T17:47:06.948Z,972.03
2022-10-16T18:02:09.208Z,971.77
2022-10-16T18:17:11.486Z,971.53
2022-10-16T18:32:13.680Z,971.45
2022-10-16T18:47:15.877Z,971.26
2022-10-16T19:02:18.101Z,971.08
2022-10-16T19:17:20.588Z,970.79
2022-10-16T19:32:22.910Z,970.55
2022-10-16T19:47:25.251Z,970.26
2022-10-16T20:02:27.981Z,970.05
2022-10-16T20:17:30.882Z,969.82
2022-10-16T20:32:33.404Z,969.47
2022-10-16T20:47:35.727Z,969.21
2022-10-16T21:02:38.008Z,969.01
2022-10-16T21:17:40.292Z,968.83
2022-10-16T21:32:42.678Z,968.62
2022-10-16T21:47:45.031Z,968.53
2022-10-16T22:02:47.407Z,968.45
2022-10-16T22:17:49.821Z,968.32
2022-10-16T22:32:52.218Z,968.16
2022-10-16T22:47:54.511Z,968.06
2022-10-16T23:02:56.964Z,968.02
2022-10-16T23:17:59.307Z,967.93
2022-10-16T23:33:01.588Z,967.9
2022-10-16T23:48:03.834Z,967.85
